Terminal Aerodrome Forecast
Issued by NWS

Home | Current Version | Previous Version | Text Only | Print | Product List | Glossary On
Versions: 1 2 3 4 5 6 7 8 9 10 11 12 13 14 15 16 17 18 19 20 21 22 23
211
FTUS43 KBIS 110119 AAA
TAFDIK
TAF AMD
KDIK 110119Z 1101/1124 12014KT 1SM -SN OVC015
     FM110300 12012KT 1SM -SN OVC015
     FM110700 09007KT 4SM -SN OVC015
     FM110900 03005KT P6SM OVC015
     FM111200 31008KT P6SM BKN035=

USA.gov is the U.S. government's official web portal to all federal, state and local government web resources and services.